Time;durP1;ratioP1;P1;durP2;ratioP2;P2;SDS_P1;SDS_P2;PMS_P1;PMS_P2;Temp;Humidity;BMP_temperature;BMP_pressure;BME280_temperature;BME280_humidity;BME280_pressure;Samples;Min_cycle;Max_cycle;Signal;HPM_P1;HPM_P2
2021/09/28 00:02:25;;;;;;;13.45;10.10;;;;;;;;;;5051437;28;20037;-47
2021/09/28 00:04:52;;;;;;;14.13;11.15;;;;;;;;;;5053222;28;20071;-48
2021/09/28 00:07:19;;;;;;;13.10;10.15;;;;;;;;;;5043885;28;20037;-47
2021/09/28 00:09:46;;;;;;;14.30;10.43;;;;;;;;;;5033897;28;20071;-44
2021/09/28 00:12:13;;;;;;;12.23;9.52;;;;;;;;;;5050406;28;20036;-43
2021/09/28 00:14:40;;;;;;;11.88;9.98;;;;;;;;;;5052775;28;20135;-48
2021/09/28 00:17:06;;;;;;;13.93;10.10;;;;;;;;;;5051192;28;20072;-44
2021/09/28 00:19:33;;;;;;;14.07;10.73;;;;;;;;;;5053510;28;20041;-43
2021/09/28 00:22:00;;;;;;;13.50;10.02;;;;;;;;;;5053524;28;20387;-45
2021/09/28 00:24:27;;;;;;;15.50;10.70;;;;;;;;;;5049149;28;20037;-44
2021/09/28 00:26:54;;;;;;;13.02;10.57;;;;;;;;;;5032377;28;20132;-42
2021/09/28 00:29:20;;;;;;;12.02;10.48;;;;;;;;;;5033273;28;20473;-46
2021/09/28 00:31:47;;;;;;;12.13;9.70;;;;;;;;;;5045871;28;20136;-49
2021/09/28 00:34:14;;;;;;;13.35;10.05;;;;;;;;;;5052259;28;20060;-47
2021/09/28 00:36:41;;;;;;;13.77;10.10;;;;;;;;;;5053248;28;20045;-46
2021/09/28 00:39:07;;;;;;;13.88;10.05;;;;;;;;;;5038195;28;20554;-46
2021/09/28 00:41:34;;;;;;;14.60;10.18;;;;;;;;;;5043481;28;20039;-44
2021/09/28 00:44:01;;;;;;;14.20;10.35;;;;;;;;;;5052475;28;20053;-47
2021/09/28 00:46:28;;;;;;;12.30;10.07;;;;;;;;;;5053298;28;20041;-47
2021/09/28 00:48:58;;;;;;;12.45;9.70;;;;;;;;;;5045762;28;20490;-48
2021/09/28 00:51:25;;;;;;;12.40;9.65;;;;;;;;;;5052924;28;20033;-44
2021/09/28 00:53:53;;;;;;;13.98;10.20;;;;;;;;;;5052265;28;20037;-46
2021/09/28 00:56:20;;;;;;;12.80;10.07;;;;;;;;;;5053179;28;20041;-46
2021/09/28 00:58:47;;;;;;;14.68;10.32;;;;;;;;;;5033070;28;20499;-48
2021/09/28 01:01:15;;;;;;;12.30;10.13;;;;;;;;;;5039837;28;20394;-46
2021/09/28 01:03:41;;;;;;;12.48;10.23;;;;;;;;;;5052343;28;20064;-46
2021/09/28 01:06:08;;;;;;;12.70;10.05;;;;;;;;;;5052991;28;20044;-46
2021/09/28 01:08:35;;;;;;;13.10;10.05;;;;;;;;;;5051029;28;20056;-47
2021/09/28 01:11:03;;;;;;;13.95;9.75;;;;;;;;;;5052433;28;20043;-44
2021/09/28 01:13:30;;;;;;;12.85;9.77;;;;;;;;;;5052028;28;20052;-46
2021/09/28 01:15:59;;;;;;;14.40;10.35;;;;;;;;;;5043833;28;20042;-47
2021/09/28 01:18:27;;;;;;;13.10;9.05;;;;;;;;;;5032860;28;20048;-46
2021/09/28 01:20:54;;;;;;;11.70;9.23;;;;;;;;;;5036034;28;20048;-47
2021/09/28 01:23:21;;;;;;;13.85;9.98;;;;;;;;;;5056086;28;20041;-44
2021/09/28 01:25:47;;;;;;;12.98;9.55;;;;;;;;;;5042417;28;20492;-48
2021/09/28 01:28:14;;;;;;;12.43;9.68;;;;;;;;;;5052538;28;20045;-47
2021/09/28 01:30:41;;;;;;;17.58;10.40;;;;;;;;;;5034394;28;20049;-46
2021/09/28 01:33:08;;;;;;;12.65;9.43;;;;;;;;;;5051782;28;20593;-45
2021/09/28 01:35:39;;;;;;;12.93;9.40;;;;;;;;;;5052577;28;20044;-47
2021/09/28 01:38:07;;;;;;;12.05;9.32;;;;;;;;;;5040364;28;20442;-43
2021/09/28 01:40:34;;;;;;;13.85;9.90;;;;;;;;;;5032235;28;20041;-43
2021/09/28 01:43:07;;;;;;;11.45;9.77;;;;;;;;;;5032350;28;20132;-47
2021/09/28 01:45:33;;;;;;;12.60;8.85;;;;;;;;;;5031294;28;20033;-44
2021/09/28 01:48:00;;;;;;;11.63;8.82;;;;;;;;;;5034999;28;20210;-43
2021/09/28 01:50:27;;;;;;;11.13;8.43;;;;;;;;;;5052105;28;20075;-42
2021/09/28 01:52:54;;;;;;;10.20;8.60;;;;;;;;;;5052067;28;20061;-44
2021/09/28 01:55:20;;;;;;;11.18;7.97;;;;;;;;;;5044148;28;20065;-46
2021/09/28 01:57:47;;;;;;;12.32;8.27;;;;;;;;;;5032441;28;20128;-46
2021/09/28 02:00:14;;;;;;;12.00;8.50;;;;;;;;;;5032168;28;20049;-46
2021/09/28 02:02:41;;;;;;;12.00;8.48;;;;;;;;;;5049583;28;20064;-42
2021/09/28 02:05:08;;;;;;;10.75;8.70;;;;;;;;;;5051256;28;20041;-45
2021/09/28 02:07:35;;;;;;;10.35;8.27;;;;;;;;;;5046765;28;20039;-42
2021/09/28 02:10:02;;;;;;;10.93;8.05;;;;;;;;;;5031757;28;20676;-42
2021/09/28 02:12:29;;;;;;;9.18;7.35;;;;;;;;;;5046926;28;20136;-43
2021/09/28 02:14:56;;;;;;;11.90;9.07;;;;;;;;;;5050838;28;20045;-42
2021/09/28 02:17:22;;;;;;;12.48;8.95;;;;;;;;;;5042078;28;20041;-46
2021/09/28 02:19:49;;;;;;;12.20;8.95;;;;;;;;;;5032050;28;20041;-47
2021/09/28 02:22:16;;;;;;;9.27;7.95;;;;;;;;;;5044869;28;20037;-50
2021/09/28 02:24:43;;;;;;;12.27;8.05;;;;;;;;;;5050791;28;20051;-46
2021/09/28 02:27:10;;;;;;;11.38;8.30;;;;;;;;;;5039032;28;20034;-46
2021/09/28 02:29:36;;;;;;;10.00;8.18;;;;;;;;;;5031587;28;20034;-46
2021/09/28 02:32:03;;;;;;;11.57;9.23;;;;;;;;;;5046189;28;20037;-46
2021/09/28 02:34:35;;;;;;;13.48;8.23;;;;;;;;;;5050760;28;20044;-48
2021/09/28 02:37:03;;;;;;;11.73;8.20;;;;;;;;;;5048903;28;20039;-48
2021/09/28 02:39:30;;;;;;;10.85;8.68;;;;;;;;;;5031322;28;20069;-47
2021/09/28 02:41:57;;;;;;;12.63;9.23;;;;;;;;;;5044484;28;20045;-47
2021/09/28 02:44:24;;;;;;;11.63;8.55;;;;;;;;;;5050375;28;20560;-45
2021/09/28 02:46:50;;;;;;;10.63;8.52;;;;;;;;;;5046241;28;20041;-42
2021/09/28 02:49:17;;;;;;;11.93;8.43;;;;;;;;;;5044189;28;20037;-43
2021/09/28 02:51:44;;;;;;;11.60;8.70;;;;;;;;;;5050806;28;20124;-43
2021/09/28 02:54:11;;;;;;;14.85;9.07;;;;;;;;;;5042961;28;20469;-43
2021/09/28 02:56:37;;;;;;;9.65;8.10;;;;;;;;;;5031163;28;20570;-42
2021/09/28 02:59:04;;;;;;;11.73;9.05;;;;;;;;;;5033862;28;20037;-44
2021/09/28 03:01:31;;;;;;;10.27;7.97;;;;;;;;;;5022582;28;20041;-44
2021/09/28 03:03:58;;;;;;;11.02;8.55;;;;;;;;;;5050885;28;20080;-43
2021/09/28 03:06:25;;;;;;;13.10;8.30;;;;;;;;;;5051149;28;20047;-45
2021/09/28 03:08:52;;;;;;;12.88;9.27;;;;;;;;;;5043274;28;20050;-43
2021/09/28 03:11:18;;;;;;;12.15;8.35;;;;;;;;;;5038564;28;20044;-45
2021/09/28 03:13:45;;;;;;;11.02;7.72;;;;;;;;;;5050335;28;20041;-44
2021/09/28 03:16:12;;;;;;;13.70;7.88;;;;;;;;;;5050412;28;20237;-46
2021/09/28 03:18:39;;;;;;;10.93;8.35;;;;;;;;;;5030567;28;20048;-45
2021/09/28 03:21:05;;;;;;;11.55;7.88;;;;;;;;;;5036035;28;20041;-46
2021/09/28 03:23:32;;;;;;;9.73;7.95;;;;;;;;;;5050034;28;20048;-48
2021/09/28 03:25:59;;;;;;;11.55;8.70;;;;;;;;;;5049288;28;20040;-45
2021/09/28 03:28:26;;;;;;;13.60;8.88;;;;;;;;;;5036485;28;20116;-46
2021/09/28 03:30:52;;;;;;;10.45;7.72;;;;;;;;;;5033760;28;20056;-47
2021/09/28 03:33:19;;;;;;;11.40;8.20;;;;;;;;;;5049814;28;20049;-45
2021/09/28 03:35:46;;;;;;;9.88;8.07;;;;;;;;;;5050246;28;20139;-46
2021/09/28 03:38:13;;;;;;;10.88;8.23;;;;;;;;;;5033459;28;20136;-44
2021/09/28 03:40:39;;;;;;;13.05;7.88;;;;;;;;;;5031764;28;20402;-43
2021/09/28 03:43:06;;;;;;;10.80;8.48;;;;;;;;;;5048543;28;20049;-43
2021/09/28 03:45:37;;;;;;;10.60;8.63;;;;;;;;;;5050524;28;20037;-46
2021/09/28 03:48:04;;;;;;;11.63;8.05;;;;;;;;;;5048538;28;20037;-48
2021/09/28 03:50:32;;;;;;;11.43;8.40;;;;;;;;;;5050199;28;20055;-44
2021/09/28 03:53:01;;;;;;;14.57;8.85;;;;;;;;;;5049770;28;20045;-46
2021/09/28 03:55:28;;;;;;;12.23;8.93;;;;;;;;;;5049437;28;20063;-47
2021/09/28 03:57:54;;;;;;;15.18;9.82;;;;;;;;;;5030387;28;20554;-45
2021/09/28 04:00:22;;;;;;;12.23;9.10;;;;;;;;;;5030397;28;20113;-46
2021/09/28 04:02:49;;;;;;;12.85;10.00;;;;;;;;;;5048925;28;20553;-45
2021/09/28 04:05:16;;;;;;;14.07;9.52;;;;;;;;;;5049719;28;20052;-49
2021/09/28 04:07:43;;;;;;;12.50;9.73;;;;;;;;;;5044354;28;20508;-44
2021/09/28 04:10:10;;;;;;;13.40;10.27;;;;;;;;;;5052551;22;20052;-47
2021/09/28 04:12:37;;;;;;;13.13;10.70;;;;;;;;;;5053893;28;20044;-45
2021/09/28 04:15:04;;;;;;;16.90;11.23;;;;;;;;;;5053585;28;20037;-45
2021/09/28 04:17:31;;;;;;;13.35;10.32;;;;;;;;;;5036799;28;20045;-48
2021/09/28 04:19:58;;;;;;;14.35;10.65;;;;;;;;;;5034034;28;20046;-47
2021/09/28 04:22:25;;;;;;;14.80;10.57;;;;;;;;;;5048724;28;20041;-46
2021/09/28 04:24:52;;;;;;;15.43;11.10;;;;;;;;;;5048189;28;20068;-46
2021/09/28 04:27:19;;;;;;;15.65;11.00;;;;;;;;;;5034097;28;20107;-45
2021/09/28 04:29:46;;;;;;;17.10;11.32;;;;;;;;;;5033882;28;20061;-45
2021/09/28 04:32:12;;;;;;;15.05;11.38;;;;;;;;;;5046598;28;20095;-49
2021/09/28 04:34:39;;;;;;;14.07;10.95;;;;;;;;;;5056541;28;20591;-44
2021/09/28 04:37:06;;;;;;;16.85;11.80;;;;;;;;;;5066663;28;20409;-44
2021/09/28 04:39:33;;;;;;;18.30;11.98;;;;;;;;;;5043961;28;20042;-46
2021/09/28 04:41:59;;;;;;;17.63;11.52;;;;;;;;;;5044013;28;20063;-49
2021/09/28 04:44:26;;;;;;;16.90;12.02;;;;;;;;;;5052854;28;20423;-45
2021/09/28 04:46:53;;;;;;;16.48;11.80;;;;;;;;;;5047407;28;20510;-47
2021/09/28 04:49:20;;;;;;;17.10;12.77;;;;;;;;;;5046717;28;20650;-45
2021/09/28 04:51:47;;;;;;;16.58;12.10;;;;;;;;;;5053578;28;20430;-46
2021/09/28 04:54:14;;;;;;;16.60;11.95;;;;;;;;;;5052926;28;20037;-46
2021/09/28 04:56:40;;;;;;;18.38;12.52;;;;;;;;;;5041967;28;20091;-46
2021/09/28 04:59:07;;;;;;;16.48;11.95;;;;;;;;;;5033935;28;20495;-45
2021/09/28 05:01:38;;;;;;;20.00;12.27;;;;;;;;;;5032817;28;20379;-41
2021/09/28 05:04:06;;;;;;;15.95;12.10;;;;;;;;;;5037767;28;20452;-47
2021/09/28 05:06:33;;;;;;;14.43;11.68;;;;;;;;;;5051581;28;20499;-43
2021/09/28 05:09:00;;;;;;;15.77;12.05;;;;;;;;;;5051221;28;20131;-46
2021/09/28 05:11:26;;;;;;;15.75;11.57;;;;;;;;;;5052743;28;20045;-47
2021/09/28 05:13:53;;;;;;;18.65;12.23;;;;;;;;;;5045442;28;20502;-44
2021/09/28 05:16:20;;;;;;;16.83;11.00;;;;;;;;;;5037392;28;20124;-46
2021/09/28 05:18:47;;;;;;;18.88;11.88;;;;;;;;;;5035045;28;20120;-44
2021/09/28 05:21:14;;;;;;;16.10;11.40;;;;;;;;;;5051306;28;20037;-45
2021/09/28 05:23:50;;;;;;;18.17;13.68;;;;;;;;;;5050316;28;20393;-44
2021/09/28 05:26:17;;;;;;;18.80;12.20;;;;;;;;;;5040407;28;20575;-46
2021/09/28 05:28:43;;;;;;;16.00;12.80;;;;;;;;;;5049190;28;20151;-43
2021/09/28 05:31:10;;;;;;;15.02;11.90;;;;;;;;;;5050146;28;20076;-46
2021/09/28 05:33:37;;;;;;;21.85;14.18;;;;;;;;;;5051723;28;20052;-46
2021/09/28 05:36:04;;;;;;;16.02;12.45;;;;;;;;;;5051401;28;20116;-45
2021/09/28 05:38:31;;;;;;;15.32;12.10;;;;;;;;;;5034672;28;20088;-45
2021/09/28 05:40:58;;;;;;;16.42;11.88;;;;;;;;;;5048436;28;20051;-50
2021/09/28 05:43:26;;;;;;;13.85;11.10;;;;;;;;;;5052791;28;20032;-45
2021/09/28 05:45:52;;;;;;;15.27;12.07;;;;;;;;;;5039006;28;20041;-46
2021/09/28 05:48:19;;;;;;;14.27;11.20;;;;;;;;;;5047765;28;20040;-46
2021/09/28 05:50:46;;;;;;;14.20;10.75;;;;;;;;;;5051928;28;20052;-46
2021/09/28 05:53:13;;;;;;;16.77;11.38;;;;;;;;;;5064681;28;20048;-46
2021/09/28 05:55:41;;;;;;;16.52;11.70;;;;;;;;;;5051150;28;20056;-44
2021/09/28 05:58:08;;;;;;;17.83;13.18;;;;;;;;;;5052168;28;20041;-44
2021/09/28 06:00:35;;;;;;;13.27;10.80;;;;;;;;;;5049171;28;20042;-44
2021/09/28 06:03:02;;;;;;;12.85;10.45;;;;;;;;;;5064432;28;20033;-47
2021/09/28 06:05:29;;;;;;;12.07;9.68;;;;;;;;;;5063870;28;20044;-45
2021/09/28 06:07:56;;;;;;;12.35;9.50;;;;;;;;;;5054101;28;20044;-44
2021/09/28 06:10:22;;;;;;;13.07;8.55;;;;;;;;;;5055235;28;20064;-48
2021/09/28 06:12:49;;;;;;;14.07;7.93;;;;;;;;;;5047649;28;20045;-48
2021/09/28 06:15:16;;;;;;;9.57;7.28;;;;;;;;;;5048055;28;20040;-45
2021/09/28 06:17:43;;;;;;;8.32;6.75;;;;;;;;;;5047650;28;20033;-45
2021/09/28 06:20:10;;;;;;;9.10;6.28;;;;;;;;;;5050943;28;20048;-45
2021/09/28 06:22:37;;;;;;;9.60;6.60;;;;;;;;;;5051643;28;20040;-47
2021/09/28 06:25:05;;;;;;;8.45;5.68;;;;;;;;;;5047777;28;20041;-43
2021/09/28 06:27:32;;;;;;;8.00;5.55;;;;;;;;;;5047823;28;20127;-45
2021/09/28 06:29:58;;;;;;;9.18;5.90;;;;;;;;;;5046086;28;20083;-45
2021/09/28 06:32:30;;;;;;;4.72;3.47;;;;;;;;;;5050871;28;20049;-45
2021/09/28 06:34:57;;;;;;;4.65;2.92;;;;;;;;;;5049554;28;20045;-44
2021/09/28 06:37:24;;;;;;;3.65;2.22;;;;;;;;;;5048941;28;20033;-44
2021/09/28 06:39:51;;;;;;;2.75;1.60;;;;;;;;;;5042677;28;20512;-46
2021/09/28 06:42:18;;;;;;;2.42;1.42;;;;;;;;;;5050569;28;20033;-45
2021/09/28 06:44:44;;;;;;;2.83;1.42;;;;;;;;;;5046625;28;20825;-47
2021/09/28 06:47:11;;;;;;;1.65;1.23;;;;;;;;;;5042717;28;20397;-46
2021/09/28 06:49:39;;;;;;;1.95;1.15;;;;;;;;;;5048703;28;20037;-46
2021/09/28 06:52:06;;;;;;;2.35;1.20;;;;;;;;;;5045919;28;20072;-47
2021/09/28 06:54:33;;;;;;;2.17;1.40;;;;;;;;;;5043664;28;20414;-44
2021/09/28 06:57:01;;;;;;;2.28;1.30;;;;;;;;;;5034655;28;20055;-44
2021/09/28 06:59:27;;;;;;;2.72;1.40;;;;;;;;;;5042267;28;20048;-44
2021/09/28 07:01:54;;;;;;;2.33;1.30;;;;;;;;;;5031200;28;20041;-45
2021/09/28 07:04:21;;;;;;;2.20;1.60;;;;;;;;;;5030904;28;20188;-45
2021/09/28 07:06:48;;;;;;;1.95;1.30;;;;;;;;;;5048686;28;20410;-46
2021/09/28 07:09:15;;;;;;;3.05;1.48;;;;;;;;;;5033451;28;20104;-45
2021/09/28 07:11:42;;;;;;;1.90;1.13;;;;;;;;;;5031108;28;20137;-45
2021/09/28 07:14:09;;;;;;;1.88;0.90;;;;;;;;;;5030760;28;20045;-45
2021/09/28 07:16:35;;;;;;;2.60;0.90;;;;;;;;;;5031291;28;20077;-45
2021/09/28 07:19:03;;;;;;;1.42;0.82;;;;;;;;;;5046408;28;20068;-48
2021/09/28 07:21:30;;;;;;;1.10;0.80;;;;;;;;;;5051234;28;20051;-46
2021/09/28 07:23:56;;;;;;;1.15;0.90;;;;;;;;;;5046513;28;20146;-43
2021/09/28 07:26:23;;;;;;;1.02;0.75;;;;;;;;;;5050871;28;20037;-45
2021/09/28 07:28:50;;;;;;;0.98;0.80;;;;;;;;;;5055286;28;20041;-46
2021/09/28 07:31:17;;;;;;;1.05;0.80;;;;;;;;;;5050438;28;20521;-46
2021/09/28 07:33:44;;;;;;;0.93;0.82;;;;;;;;;;5054222;28;20055;-47
2021/09/28 07:36:10;;;;;;;2.20;1.60;;;;;;;;;;5041604;28;20132;-46
2021/09/28 07:38:40;;;;;;;1.85;0.93;;;;;;;;;;5042658;28;20049;-45
2021/09/28 07:41:07;;;;;;;1.88;1.00;;;;;;;;;;5068474;28;20498;-42
2021/09/28 07:43:34;;;;;;;3.00;1.10;;;;;;;;;;5052010;28;20033;-44
2021/09/28 07:46:01;;;;;;;2.38;1.10;;;;;;;;;;5041157;28;20045;-43
2021/09/28 07:48:28;;;;;;;5.13;1.10;;;;;;;;;;5054820;28;20041;-45
2021/09/28 07:50:54;;;;;;;1.52;1.00;;;;;;;;;;5054575;28;20482;-44
2021/09/28 07:53:24;;;;;;;1.90;1.05;;;;;;;;;;5072238;28;20131;-45
2021/09/28 07:55:51;;;;;;;3.80;1.20;;;;;;;;;;5046716;28;20037;-48
2021/09/28 07:58:18;;;;;;;2.22;1.20;;;;;;;;;;5041521;28;20128;-46
2021/09/28 08:00:45;;;;;;;2.40;1.02;;;;;;;;;;5049096;28;20033;-44
2021/09/28 08:03:12;;;;;;;2.20;1.30;;;;;;;;;;5051960;28;20453;-46
2021/09/28 08:05:39;;;;;;;2.15;1.05;;;;;;;;;;5054478;28;20068;-45
2021/09/28 08:08:06;;;;;;;1.95;1.00;;;;;;;;;;5050996;28;20056;-43
2021/09/28 08:10:33;;;;;;;3.13;1.20;;;;;;;;;;5066506;28;20056;-45
2021/09/28 08:13:04;;;;;;;2.50;1.30;;;;;;;;;;5058797;28;20044;-46
2021/09/28 08:15:34;;;;;;;4.10;1.52;;;;;;;;;;5068088;28;20068;-44
2021/09/28 08:18:02;;;;;;;3.53;1.30;;;;;;;;;;5056592;28;20070;-44
2021/09/28 08:20:29;;;;;;;2.75;1.45;;;;;;;;;;5059878;28;20148;-50
2021/09/28 08:22:57;;;;;;;1.75;1.30;;;;;;;;;;5053572;28;20047;-43
2021/09/28 08:31:00;;;;;;;2.28;1.80;;;;;;;;;;5052369;28;20128;-44
2021/09/28 08:33:27;;;;;;;2.70;1.90;;;;;;;;;;5042469;28;20402;-44
2021/09/28 08:35:54;;;;;;;2.95;1.70;;;;;;;;;;5053721;28;20045;-45
2021/09/28 08:38:20;;;;;;;2.45;2.00;;;;;;;;;;5046350;28;20475;-44
2021/09/28 08:40:47;;;;;;;3.00;1.98;;;;;;;;;;5047965;28;20403;-44
2021/09/28 08:43:14;;;;;;;3.72;2.40;;;;;;;;;;5052734;28;20069;-46
2021/09/28 08:45:42;;;;;;;3.20;2.40;;;;;;;;;;5051583;28;20095;-44
2021/09/28 08:48:15;;;;;;;2.88;1.90;;;;;;;;;;5047637;28;20478;-46
2021/09/28 08:50:49;;;;;;;4.65;1.98;;;;;;;;;;5052783;28;20037;-45
2021/09/28 08:53:16;;;;;;;5.13;2.20;;;;;;;;;;5050312;28;20068;-45
2021/09/28 08:55:43;;;;;;;3.55;1.90;;;;;;;;;;5051004;28;20043;-43
2021/09/28 08:58:14;;;;;;;4.00;2.13;;;;;;;;;;5049474;28;20139;-43
2021/09/28 09:00:41;;;;;;;4.30;3.15;;;;;;;;;;5050415;28;20102;-45
2021/09/28 09:03:23;;;;;;;3.00;2.22;;;;;;;;;;5051926;28;20517;-44
2021/09/28 09:05:49;;;;;;;4.32;2.47;;;;;;;;;;5051814;28;20049;-44
2021/09/28 09:08:22;;;;;;;3.97;2.70;;;;;;;;;;5048182;28;20041;-44
2021/09/28 09:10:57;;;;;;;2.50;1.80;;;;;;;;;;5051250;28;20037;-45
2021/09/28 09:13:37;;;;;;;2.88;1.90;;;;;;;;;;5048312;28;20295;-45
2021/09/28 09:16:05;;;;;;;3.60;2.85;;;;;;;;;;5050285;28;20340;-43
2021/09/28 09:18:33;;;;;;;2.72;2.05;;;;;;;;;;5050665;28;20049;-41
2021/09/28 09:21:00;;;;;;;3.83;2.00;;;;;;;;;;5063344;28;20040;-44
2021/09/28 09:23:32;;;;;;;2.08;1.67;;;;;;;;;;5052384;28;20047;-44
2021/09/28 09:26:16;;;;;;;3.00;1.50;;;;;;;;;;5050518;28;20045;-45
2021/09/28 09:28:42;;;;;;;;;;;;;;;;;;5042653;28;20072;-41
2021/09/28 09:31:44;;;;;;;4.18;1.90;;;;;;;;;;5035510;28;19933;-44
2021/09/28 09:34:06;;;;;;;2.50;1.95;;;;;;;;;;5050777;28;20075;-42
2021/09/28 09:36:33;;;;;;;4.75;2.50;;;;;;;;;;5052940;28;20053;-43
2021/09/28 09:39:03;;;;;;;4.00;3.22;;;;;;;;;;5049814;28;20072;-45
2021/09/28 09:41:30;;;;;;;5.05;4.40;;;;;;;;;;5049598;28;20041;-41
2021/09/28 09:44:05;;;;;;;4.38;3.80;;;;;;;;;;5048756;28;20522;-43
2021/09/28 09:46:39;;;;;;;5.72;4.00;;;;;;;;;;5063772;28;20426;-42
2021/09/28 09:49:09;;;;;;;4.65;3.25;;;;;;;;;;5059711;28;20101;-42
2021/09/28 09:51:39;;;;;;;3.78;2.60;;;;;;;;;;5071003;28;20425;-45
2021/09/28 09:54:06;;;;;;;3.35;2.38;;;;;;;;;;5054516;28;20045;-43
2021/09/28 09:56:47;;;;;;;2.30;1.95;;;;;;;;;;5058712;28;20067;-44
2021/09/28 09:59:15;;;;;;;3.42;1.90;;;;;;;;;;5043424;28;20064;-45
2021/09/28 10:01:43;;;;;;;2.40;1.83;;;;;;;;;;5066516;28;20087;-43
2021/09/28 10:04:14;;;;;;;2.60;1.80;;;;;;;;;;5055226;28;20041;-43
2021/09/28 10:06:41;;;;;;;2.53;1.50;;;;;;;;;;5050922;28;20390;-44
2021/09/28 10:09:11;;;;;;;4.38;1.80;;;;;;;;;;5062414;28;20127;-43
2021/09/28 10:11:39;;;;;;;2.63;1.80;;;;;;;;;;5066205;28;20449;-44
2021/09/28 10:14:06;;;;;;;2.92;1.90;;;;;;;;;;5043831;28;20491;-44
2021/09/28 10:16:35;;;;;;;3.20;2.20;;;;;;;;;;5059763;28;20131;-47
2021/09/28 10:19:02;;;;;;;2.75;1.92;;;;;;;;;;5063098;28;20072;-43
2021/09/28 10:21:41;;;;;;;3.78;2.00;;;;;;;;;;5050318;28;20045;-46
2021/09/28 10:24:17;;;;;;;4.80;2.75;;;;;;;;;;5067043;28;20045;-45
2021/09/28 10:27:07;;;;;;;4.78;3.00;;;;;;;;;;5066652;28;20041;-47
2021/09/28 10:29:36;;;;;;;7.03;3.20;;;;;;;;;;5043308;28;20041;-45
2021/09/28 10:32:22;;;;;;;4.88;3.40;;;;;;;;;;5066753;28;20044;-41
2021/09/28 10:35:02;;;;;;;6.65;3.92;;;;;;;;;;5059352;28;20056;-43
2021/09/28 10:37:41;;;;;;;5.32;3.63;;;;;;;;;;5049841;28;20535;-44
2021/09/28 10:40:28;;;;;;;5.07;3.22;;;;;;;;;;5065378;28;20140;-44
2021/09/28 10:42:56;;;;;;;4.93;3.20;;;;;;;;;;5054789;28;20458;-46
2021/09/28 10:45:26;;;;;;;4.40;3.30;;;;;;;;;;5050339;28;20045;-44
2021/09/28 10:47:53;;;;;;;4.82;3.40;;;;;;;;;;5053950;28;20048;-43
2021/09/28 10:50:23;;;;;;;4.90;3.38;;;;;;;;;;5038460;28;20119;-44
2021/09/28 10:52:51;;;;;;;5.68;3.70;;;;;;;;;;5063338;28;20110;-45
2021/09/28 10:55:19;;;;;;;5.55;4.05;;;;;;;;;;5054665;28;20052;-43
2021/09/28 10:58:14;;;;;;;5.78;3.78;;;;;;;;;;5056264;28;20127;-44
2021/09/28 11:00:41;;;;;;;6.85;4.35;;;;;;;;;;5037175;28;20547;-44
2021/09/28 11:03:09;;;;;;;4.88;3.42;;;;;;;;;;5051134;28;20040;-48
2021/09/28 11:05:39;;;;;;;5.93;4.25;;;;;;;;;;5057562;28;20052;-46
2021/09/28 11:08:10;;;;;;;7.45;4.35;;;;;;;;;;5059622;28;20043;-46
2021/09/28 11:10:37;;;;;;;4.93;3.90;;;;;;;;;;5057630;28;20044;-42
2021/09/28 11:13:08;;;;;;;5.53;4.10;;;;;;;;;;5061862;28;20095;-47
2021/09/28 11:15:35;;;;;;;6.55;3.92;;;;;;;;;;5054365;28;20037;-46
2021/09/28 11:18:08;;;;;;;5.47;3.80;;;;;;;;;;5051040;28;20041;-47
2021/09/28 11:20:35;;;;;;;7.15;3.70;;;;;;;;;;5069783;28;20110;-49
2021/09/28 11:23:09;;;;;;;6.22;3.30;;;;;;;;;;5064547;28;20155;-47
2021/09/28 11:25:37;;;;;;;4.45;2.40;;;;;;;;;;5057196;28;20506;-48
2021/09/28 11:28:10;;;;;;;16.80;4.20;;;;;;;;;;5061729;28;20478;-51
2021/09/28 11:30:39;;;;;;;5.57;3.90;;;;;;;;;;5049042;28;20036;-47
2021/09/28 11:33:09;;;;;;;2.90;2.50;;;;;;;;;;5065925;28;20360;-46
2021/09/28 11:35:37;;;;;;;3.25;2.50;;;;;;;;;;5069769;28;20490;-46
2021/09/28 11:38:04;;;;;;;3.90;2.42;;;;;;;;;;5049431;28;20045;-45
2021/09/28 11:40:39;;;;;;;4.03;2.83;;;;;;;;;;5055343;28;20132;-45
2021/09/28 11:43:24;;;;;;;4.32;3.10;;;;;;;;;;5055511;28;20140;-44
2021/09/28 11:46:01;;;;;;;4.75;2.47;;;;;;;;;;5033583;28;20133;-45
2021/09/28 11:48:35;;;;;;;4.93;2.83;;;;;;;;;;5044469;28;20083;-45
2021/09/28 11:51:02;;;;;;;;;;;;;;;;;;5053319;28;20051;-39
2021/09/28 11:53:28;;;;;;;3.70;2.70;;;;;;;;;;5055621;28;19920;-40
2021/09/28 11:55:55;;;;;;;3.67;2.47;;;;;;;;;;5050723;28;20045;-42
2021/09/28 11:58:22;;;;;;;3.58;2.30;;;;;;;;;;5035867;28;20192;-42
2021/09/28 12:00:50;;;;;;;3.88;2.60;;;;;;;;;;5054908;28;20033;-40
2021/09/28 12:03:23;;;;;;;3.72;2.53;;;;;;;;;;5052645;28;20124;-38
2021/09/28 12:06:04;;;;;;;3.72;2.40;;;;;;;;;;5050289;28;20044;-39
2021/09/28 12:08:32;;;;;;;4.22;2.47;;;;;;;;;;5040924;28;20051;-39
2021/09/28 12:11:03;;;;;;;3.60;2.30;;;;;;;;;;5054271;28;20067;-41
2021/09/28 12:13:31;;;;;;;4.10;3.10;;;;;;;;;;5046561;28;20045;-39
2021/09/28 12:16:00;;;;;;;4.95;3.00;;;;;;;;;;5056413;28;20063;-42
2021/09/28 12:18:28;;;;;;;3.92;2.88;;;;;;;;;;5055870;28;20095;-39
2021/09/28 12:21:14;;;;;;;3.47;2.50;;;;;;;;;;5056748;28;20048;-40
2021/09/28 12:23:42;;;;;;;4.47;2.60;;;;;;;;;;5055171;28;20059;-40
2021/09/28 12:26:24;;;;;;;3.35;2.47;;;;;;;;;;5038835;28;20056;-40
2021/09/28 12:28:52;;;;;;;3.97;2.58;;;;;;;;;;5046273;28;20040;-40
2021/09/28 12:31:36;;;;;;;4.05;2.83;;;;;;;;;;5048491;28;20044;-42
2021/09/28 12:34:04;;;;;;;3.80;2.88;;;;;;;;;;5061604;28;20059;-39
2021/09/28 12:36:31;;;;;;;5.68;2.90;;;;;;;;;;5061986;28;20057;-40
2021/09/28 12:39:11;;;;;;;5.70;2.65;;;;;;;;;;5059647;28;20037;-40
2021/09/28 12:41:56;;;;;;;5.55;2.72;;;;;;;;;;5056037;28;20045;-41
2021/09/28 12:44:23;;;;;;;3.88;1.90;;;;;;;;;;5062715;28;20565;-40
2021/09/28 12:46:51;;;;;;;3.92;1.98;;;;;;;;;;5058303;28;20050;-40
2021/09/28 12:49:32;;;;;;;4.55;2.42;;;;;;;;;;5044157;28;20045;-42
2021/09/28 12:52:00;;;;;;;2.90;2.17;;;;;;;;;;5054079;28;20048;-40
2021/09/28 12:54:27;;;;;;;6.50;3.47;;;;;;;;;;5061274;28;20459;-40
2021/09/28 12:56:54;;;;;;;6.30;3.10;;;;;;;;;;5051858;28;20080;-42
2021/09/28 12:59:21;;;;;;;6.82;3.45;;;;;;;;;;5046166;28;20072;-40
2021/09/28 13:01:48;;;;;;;5.80;3.33;;;;;;;;;;5059886;28;20083;-41
2021/09/28 13:04:17;;;;;;;5.32;3.10;;;;;;;;;;5061258;28;20047;-44
2021/09/28 13:06:45;;;;;;;6.10;3.10;;;;;;;;;;5054321;28;20055;-44
2021/09/28 13:09:13;;;;;;;5.30;3.17;;;;;;;;;;5035729;28;20065;-42
2021/09/28 13:11:40;;;;;;;4.38;3.00;;;;;;;;;;5047343;28;20063;-44
2021/09/28 13:14:08;;;;;;;9.50;3.60;;;;;;;;;;5041175;28;20041;-43
2021/09/28 13:16:35;;;;;;;5.57;3.08;;;;;;;;;;5052396;28;20120;-47
2021/09/28 13:19:02;;;;;;;6.53;3.72;;;;;;;;;;5051762;28;20045;-50
2021/09/28 13:21:29;;;;;;;8.02;3.63;;;;;;;;;;5052408;28;20037;-49
2021/09/28 13:23:56;;;;;;;6.10;3.47;;;;;;;;;;5042062;28;20037;-44
2021/09/28 13:26:22;;;;;;;5.53;3.90;;;;;;;;;;5050807;28;20065;-45
2021/09/28 13:28:49;;;;;;;5.95;3.20;;;;;;;;;;5049318;28;20492;-45
2021/09/28 13:31:16;;;;;;;5.72;3.55;;;;;;;;;;5050426;28;20116;-46
2021/09/28 13:33:43;;;;;;;4.93;3.30;;;;;;;;;;5051149;28;20061;-47
2021/09/28 13:36:20;;;;;;;4.72;3.20;;;;;;;;;;5048320;28;20155;-45
2021/09/28 13:38:47;;;;;;;4.80;3.10;;;;;;;;;;5048807;28;20447;-49
2021/09/28 13:41:14;;;;;;;5.03;3.42;;;;;;;;;;5051734;28;20132;-45
2021/09/28 13:43:40;;;;;;;5.55;3.92;;;;;;;;;;5051802;28;20051;-47
2021/09/28 13:46:07;;;;;;;6.60;3.83;;;;;;;;;;5051458;28;20044;-46
2021/09/28 13:48:34;;;;;;;6.85;3.75;;;;;;;;;;5031738;28;20065;-46
2021/09/28 13:51:01;;;;;;;13.40;4.32;;;;;;;;;;5042109;28;20136;-47
2021/09/28 13:53:28;;;;;;;9.13;4.30;;;;;;;;;;5050635;28;20069;-48
2021/09/28 13:55:55;;;;;;;5.28;4.05;;;;;;;;;;5048147;28;20055;-49
2021/09/28 13:58:22;;;;;;;7.55;4.07;;;;;;;;;;5052271;28;20048;-47
2021/09/28 14:00:49;;;;;;;9.38;5.18;;;;;;;;;;5047282;28;20080;-47
2021/09/28 14:03:17;;;;;;;6.05;4.25;;;;;;;;;;5052361;28;20044;-47
2021/09/28 14:05:46;;;;;;;11.00;4.05;;;;;;;;;;5045386;28;20050;-45
2021/09/28 14:08:14;;;;;;;8.88;4.00;;;;;;;;;;5044555;28;20409;-48
2021/09/28 14:10:42;;;;;;;6.10;3.35;;;;;;;;;;5045892;28;20095;-49
2021/09/28 14:13:09;;;;;;;7.00;4.10;;;;;;;;;;5051575;28;20041;-46
2021/09/28 14:15:36;;;;;;;8.00;3.85;;;;;;;;;;5050223;28;20045;-44
2021/09/28 14:18:04;;;;;;;7.15;3.47;;;;;;;;;;5047502;28;20388;-47
2021/09/28 14:20:31;;;;;;;4.93;3.85;;;;;;;;;;5043666;28;20073;-44
2021/09/28 14:22:59;;;;;;;8.60;3.78;;;;;;;;;;5038612;28;20037;-44
2021/09/28 14:25:27;;;;;;;6.90;3.70;;;;;;;;;;5049195;28;20505;-43
2021/09/28 14:27:55;;;;;;;9.25;4.10;;;;;;;;;;5050272;28;20049;-43
2021/09/28 14:30:23;;;;;;;5.07;3.50;;;;;;;;;;5049773;28;20045;-44
2021/09/28 14:32:50;;;;;;;7.45;3.55;;;;;;;;;;5049080;28;20041;-45
2021/09/28 14:35:18;;;;;;;6.20;3.55;;;;;;;;;;5051606;28;20087;-47
2021/09/28 14:38:07;;;;;;;7.72;3.22;;;;;;;;;;5044678;28;20097;-44
2021/09/28 14:40:34;;;;;;;5.45;3.53;;;;;;;;;;5052202;28;20510;-44
2021/09/28 14:43:02;;;;;;;8.73;3.78;;;;;;;;;;5047209;28;20072;-46
2021/09/28 14:45:30;;;;;;;6.82;4.05;;;;;;;;;;5045365;28;20041;-47
2021/09/28 14:47:59;;;;;;;5.38;3.03;;;;;;;;;;5052208;28;20037;-48
2021/09/28 14:50:26;;;;;;;6.28;3.25;;;;;;;;;;5047318;28;20478;-48